createdAt,value
2019-03-01T00:01:41.559Z,8.70
2019-03-01T00:06:59.004Z,8.70
2019-03-01T00:12:31.562Z,8.60
2019-03-01T00:18:10.337Z,8.50
2019-03-01T00:23:50.901Z,8.40
2019-03-01T00:29:13.912Z,8.30
2019-03-01T00:34:44.055Z,8.30
2019-03-01T00:40:08.025Z,8.20
2019-03-01T00:45:14.018Z,8.10
2019-03-01T00:50:18.785Z,8.10
2019-03-01T00:55:23.814Z,8.00
2019-03-01T01:00:33.395Z,8.00
2019-03-01T01:05:37.750Z,7.90
2019-03-01T01:10:43.088Z,7.90
2019-03-01T01:15:47.886Z,7.90
2019-03-01T01:20:52.403Z,7.80
2019-03-01T01:25:57.357Z,7.80
2019-03-01T01:31:01.880Z,7.70
2019-03-01T01:36:07.107Z,7.70
2019-03-01T01:41:16.874Z,7.70
2019-03-01T01:46:21.338Z,7.60
2019-03-01T01:51:25.924Z,7.60
2019-03-01T01:56:33.283Z,7.70
2019-03-01T02:01:38.671Z,7.70
2019-03-01T02:06:43.492Z,7.70
2019-03-01T02:11:48.238Z,7.60
2019-03-01T02:16:53.101Z,7.50
2019-03-01T02:21:58.065Z,7.40
2019-03-01T02:27:28.750Z,7.30
2019-03-01T02:32:39.589Z,7.30
2019-03-01T02:37:44.102Z,7.30
2019-03-01T02:42:48.665Z,7.30
2019-03-01T02:47:53.739Z,7.30
2019-03-01T02:52:58.194Z,7.30
2019-03-01T02:58:04.184Z,7.30
2019-03-01T03:03:09.417Z,7.30
2019-03-01T03:08:14.146Z,7.20
2019-03-01T03:13:19.663Z,7.20
2019-03-01T03:18:24.789Z,7.10
2019-03-01T03:23:29.569Z,7.10
2019-03-01T03:28:34.100Z,7.00
2019-03-01T03:33:39.305Z,7.00
2019-03-01T03:38:43.939Z,6.90
2019-03-01T03:43:48.348Z,6.90
2019-03-01T03:48:53.910Z,6.90
2019-03-01T03:54:00.455Z,6.90
2019-03-01T03:59:05.460Z,6.80
2019-03-01T04:04:09.952Z,6.80
2019-03-01T04:09:15.109Z,6.80
2019-03-01T04:14:20.823Z,6.80
2019-03-01T04:19:25.749Z,6.80
2019-03-01T04:24:30.434Z,6.80
2019-03-01T04:29:35.977Z,6.90
2019-03-01T04:34:41.397Z,6.80
2019-03-01T04:39:46.409Z,6.80
2019-03-01T04:44:51.760Z,6.70
2019-03-01T04:49:56.864Z,6.70
2019-03-01T04:55:02.743Z,6.70
2019-03-01T05:00:10.194Z,6.70
2019-03-01T05:05:16.015Z,6.70
2019-03-01T05:10:22.078Z,6.70
2019-03-01T05:15:26.640Z,6.70
2019-03-01T05:20:31.864Z,6.60
2019-03-01T05:25:36.799Z,6.70
2019-03-01T05:30:42.939Z,6.70
2019-03-01T05:35:48.010Z,6.60
2019-03-01T05:40:52.815Z,6.70
2019-03-01T05:45:58.451Z,6.70
2019-03-01T05:51:03.775Z,6.70
2019-03-01T05:56:08.336Z,6.70
2019-03-01T06:01:43.694Z,6.80
2019-03-01T06:07:30.013Z,6.70
2019-03-01T06:13:31.230Z,6.70
2019-03-01T06:19:16.314Z,6.70
2019-03-01T06:24:50.246Z,6.70
2019-03-01T06:30:28.736Z,6.70
2019-03-01T06:35:48.286Z,6.70
2019-03-01T06:41:27.413Z,6.70
2019-03-01T06:46:59.397Z,6.70
2019-03-01T06:52:05.366Z,6.70
2019-03-01T06:57:09.996Z,6.70
2019-03-01T07:02:18.867Z,6.70
2019-03-01T07:07:23.685Z,6.60
2019-03-01T07:12:34.471Z,6.70
2019-03-01T07:17:40.294Z,6.60
2019-03-01T07:22:45.272Z,6.60
2019-03-01T07:27:50.146Z,6.60
2019-03-01T07:32:55.462Z,6.70
2019-03-01T07:38:00.967Z,6.60
2019-03-01T07:43:07.672Z,6.60
2019-03-01T07:48:12.624Z,6.70
2019-03-01T07:53:17.473Z,6.90
2019-03-01T07:58:25.709Z,7.00
2019-03-01T08:03:32.380Z,7.00
2019-03-01T08:08:38.818Z,7.20
2019-03-01T08:13:49.247Z,7.30
2019-03-01T08:18:52.430Z,7.30
2019-03-01T08:23:57.529Z,7.40
2019-03-01T08:29:02.674Z,7.40
2019-03-01T08:34:07.437Z,7.40
2019-03-01T08:39:12.000Z,7.40
2019-03-01T08:44:19.422Z,7.40
2019-03-01T08:49:22.596Z,7.30
2019-03-01T08:54:27.664Z,7.50
2019-03-01T08:59:32.961Z,7.60
2019-03-01T09:04:40.451Z,7.60
2019-03-01T09:09:45.854Z,8.00
2019-03-01T09:14:50.908Z,8.40
2019-03-01T09:19:57.132Z,9.00
2019-03-01T09:25:02.667Z,9.50
2019-03-01T09:30:14.893Z,9.60
2019-03-01T09:35:57.954Z,9.60
2019-03-01T09:41:04.651Z,9.90
2019-03-01T09:46:09.592Z,9.70
2019-03-01T09:51:15.903Z,9.20
2019-03-01T09:56:20.517Z,8.70
2019-03-01T10:01:25.261Z,8.40
2019-03-01T10:06:37.825Z,8.40
2019-03-01T10:11:36.881Z,8.20
2019-03-01T10:16:41.956Z,7.90
2019-03-01T10:21:47.028Z,7.70
2019-03-01T10:26:51.434Z,7.60
2019-03-01T10:31:56.056Z,7.60
2019-03-01T10:37:00.841Z,7.70
2019-03-01T10:42:05.912Z,7.80
2019-03-01T10:47:10.387Z,7.90
2019-03-01T10:52:15.613Z,8.00
2019-03-01T10:57:21.961Z,8.00
2019-03-01T11:02:26.402Z,8.00
2019-03-01T11:07:30.846Z,8.00
2019-03-01T11:12:37.028Z,7.70
2019-03-01T11:17:41.663Z,7.80
2019-03-01T11:22:46.690Z,7.90
2019-03-01T11:27:51.162Z,8.10
2019-03-01T11:32:55.924Z,8.10
2019-03-01T11:38:04.254Z,8.00
2019-03-01T11:43:09.059Z,7.90
2019-03-01T11:48:13.606Z,7.90
2019-03-01T11:53:18.687Z,7.80
2019-03-01T11:58:23.251Z,7.80
2019-03-01T12:03:28.086Z,7.80
2019-03-01T12:08:33.128Z,8.10
2019-03-01T12:13:37.623Z,8.30
2019-03-01T12:18:43.223Z,8.50
2019-03-01T12:23:47.945Z,8.60
2019-03-01T12:28:52.884Z,8.80
2019-03-01T12:33:57.920Z,9.10
2019-03-01T12:39:03.161Z,9.10
2019-03-01T12:44:08.968Z,9.10
2019-03-01T12:49:13.678Z,9.30
2019-03-01T12:54:21.743Z,9.30
2019-03-01T12:59:28.603Z,9.40
2019-03-01T13:04:33.578Z,9.30
2019-03-01T13:09:38.722Z,9.20
2019-03-01T13:14:43.195Z,9.20
2019-03-01T13:19:47.849Z,9.30
2019-03-01T13:24:53.534Z,9.80
2019-03-01T13:29:59.815Z,10.10
2019-03-01T13:35:05.142Z,10.30
2019-03-01T13:40:11.403Z,10.20
2019-03-01T13:45:17.506Z,10.20
2019-03-01T13:50:22.977Z,10.00
2019-03-01T13:55:30.392Z,9.50
2019-03-01T14:00:48.831Z,9.30
2019-03-01T14:05:54.838Z,9.00
2019-03-01T14:10:59.398Z,9.00
2019-03-01T14:16:04.424Z,9.00
2019-03-01T14:21:08.828Z,8.90
2019-03-01T14:26:15.203Z,8.70
2019-03-01T14:31:22.337Z,8.50
2019-03-01T14:36:27.084Z,8.80
2019-03-01T14:41:34.260Z,8.90
2019-03-01T14:46:39.070Z,8.90
2019-03-01T14:51:47.759Z,9.00
2019-03-01T14:57:17.248Z,9.10
2019-03-01T15:03:01.727Z,9.10
2019-03-01T15:08:07.767Z,9.10
2019-03-01T15:13:12.916Z,9.30
2019-03-01T15:18:18.033Z,9.30
2019-03-01T15:23:25.096Z,9.30
2019-03-01T15:28:29.634Z,9.60
2019-03-01T15:33:34.473Z,9.70
2019-03-01T15:38:39.408Z,9.30
2019-03-01T15:43:47.323Z,8.90
2019-03-01T15:48:52.223Z,8.70
2019-03-01T15:53:57.601Z,8.80
2019-03-01T15:59:06.071Z,9.10
2019-03-01T16:04:11.715Z,9.80
2019-03-01T16:09:16.972Z,9.70
2019-03-01T16:14:24.133Z,9.20
2019-03-01T16:19:29.493Z,8.70
2019-03-01T16:24:34.868Z,8.40
2019-03-01T16:29:57.609Z,8.20
2019-03-01T16:35:05.446Z,8.10
2019-03-01T16:40:12.041Z,8.00
2019-03-01T16:45:17.692Z,7.90
2019-03-01T16:50:24.799Z,7.80
2019-03-01T16:55:33.557Z,7.70
2019-03-01T17:01:16.363Z,7.70
2019-03-01T17:06:21.224Z,7.60
2019-03-01T17:11:27.035Z,7.60
2019-03-01T17:16:31.661Z,7.50
2019-03-01T17:21:37.412Z,7.50
2019-03-01T17:26:41.932Z,7.40
2019-03-01T17:31:47.438Z,7.30
2019-03-01T17:36:53.319Z,7.20
2019-03-01T17:41:58.433Z,7.20
2019-03-01T17:47:09.356Z,7.10
2019-03-01T17:52:12.633Z,7.00
2019-03-01T17:57:17.306Z,6.90
2019-03-01T18:02:24.171Z,6.90
2019-03-01T18:07:29.231Z,6.80
2019-03-01T18:12:33.835Z,6.70
2019-03-01T18:17:39.654Z,6.70
2019-03-01T18:22:44.792Z,6.70
2019-03-01T18:27:52.662Z,6.80
2019-03-01T18:32:56.503Z,6.80
2019-03-01T18:38:01.614Z,6.90
2019-03-01T18:43:06.364Z,7.00
2019-03-01T18:48:10.971Z,7.00
2019-03-01T18:53:15.455Z,7.10
2019-03-01T18:58:20.642Z,7.00
2019-03-01T19:03:26.165Z,7.00
2019-03-01T19:08:31.289Z,7.00
2019-03-01T19:13:41.811Z,7.00
2019-03-01T19:18:48.226Z,7.00
2019-03-01T19:23:53.382Z,7.00
2019-03-01T19:28:58.916Z,6.90
2019-03-01T19:34:04.859Z,6.90
2019-03-01T19:39:22.153Z,6.80
2019-03-01T19:44:29.865Z,6.80
2019-03-01T19:49:38.379Z,6.70
2019-03-01T19:54:43.159Z,6.70
2019-03-01T19:59:49.611Z,6.60
2019-03-01T20:04:55.646Z,6.60
2019-03-01T20:10:00.343Z,6.70
2019-03-01T20:15:06.634Z,6.70
2019-03-01T20:20:12.735Z,6.70
2019-03-01T20:25:17.976Z,6.60
2019-03-01T20:30:28.658Z,6.50
2019-03-01T20:35:30.980Z,6.40
2019-03-01T20:40:36.033Z,6.40
2019-03-01T20:45:40.610Z,6.40
2019-03-01T20:50:47.617Z,6.30
2019-03-01T20:55:52.483Z,6.30
2019-03-01T21:00:58.976Z,6.30
2019-03-01T21:06:05.650Z,6.30
2019-03-01T21:11:10.907Z,6.30
2019-03-01T21:16:18.038Z,6.30
2019-03-01T21:21:25.513Z,6.20
2019-03-01T21:26:29.942Z,6.20
2019-03-01T21:31:37.500Z,6.20
2019-03-01T21:36:42.299Z,6.20
2019-03-01T21:41:47.192Z,6.20
2019-03-01T21:46:52.171Z,6.10
2019-03-01T21:51:57.581Z,6.10
2019-03-01T21:57:02.255Z,6.10
2019-03-01T22:02:07.315Z,6.00
2019-03-01T22:07:12.541Z,6.00
2019-03-01T22:12:17.200Z,6.00
2019-03-01T22:17:21.809Z,6.00
2019-03-01T22:22:26.318Z,6.00
2019-03-01T22:27:31.022Z,6.00
2019-03-01T22:32:36.005Z,5.90
2019-03-01T22:37:40.539Z,5.90
2019-03-01T22:42:49.368Z,6.00
2019-03-01T22:47:52.833Z,5.90
2019-03-01T22:52:58.439Z,5.90
2019-03-01T22:58:05.595Z,5.90
2019-03-01T23:03:11.765Z,5.90
2019-03-01T23:08:16.893Z,5.80
2019-03-01T23:13:21.942Z,5.70
2019-03-01T23:18:29.694Z,5.70
2019-03-01T23:23:34.891Z,5.70
2019-03-01T23:28:40.804Z,5.60
2019-03-01T23:33:46.478Z,5.60
2019-03-01T23:38:51.726Z,5.60
2019-03-01T23:44:02.867Z,5.60
2019-03-01T23:49:06.647Z,5.60
2019-03-01T23:54:13.834Z,5.60
2019-03-01T23:59:18.646Z,5.60
